sensor_id;sensor_type;location;lat;lon;timestamp;temperature;humidity
21950;DHT22;11139;51.284;7.226;2023-04-24T00:01:16;12.10;99.90
21950;DHT22;11139;51.284;7.226;2023-04-24T00:03:42;12.10;99.90
21950;DHT22;11139;51.284;7.226;2023-04-24T00:06:07;12.10;99.90
21950;DHT22;11139;51.284;7.226;2023-04-24T00:08:34;12.10;99.90
21950;DHT22;11139;51.284;7.226;2023-04-24T00:10:59;12.10;99.90
21950;DHT22;11139;51.284;7.226;2023-04-24T00:13:25;12.10;99.90
21950;DHT22;11139;51.284;7.226;2023-04-24T00:15:50;12.10;99.90
21950;DHT22;11139;51.284;7.226;2023-04-24T00:18:16;12.10;99.90
21950;DHT22;11139;51.284;7.226;2023-04-24T00:20:42;12.10;99.90
21950;DHT22;11139;51.284;7.226;2023-04-24T00:23:08;12.10;99.90
21950;DHT22;11139;51.284;7.226;2023-04-24T00:25:34;12.10;99.90
21950;DHT22;11139;51.284;7.226;2023-04-24T00:28:00;12.00;99.90
21950;DHT22;11139;51.284;7.226;2023-04-24T00:30:25;12.00;99.90
21950;DHT22;11139;51.284;7.226;2023-04-24T00:32:51;12.00;99.90
21950;DHT22;11139;51.284;7.226;2023-04-24T00:35:16;12.00;99.90
21950;DHT22;11139;51.284;7.226;2023-04-24T00:37:42;12.00;99.90
21950;DHT22;11139;51.284;7.226;2023-04-24T00:40:07;12.00;99.90
21950;DHT22;11139;51.284;7.226;2023-04-24T00:42:33;12.00;99.90
21950;DHT22;11139;51.284;7.226;2023-04-24T00:44:59;12.00;99.90
21950;DHT22;11139;51.284;7.226;2023-04-24T00:47:26;12.00;99.90
21950;DHT22;11139;51.284;7.226;2023-04-24T00:49:52;12.00;99.90
21950;DHT22;11139;51.284;7.226;2023-04-24T00:52:17;12.00;99.90
21950;DHT22;11139;51.284;7.226;2023-04-24T00:54:43;12.00;99.90
21950;DHT22;11139;51.284;7.226;2023-04-24T00:57:10;12.00;99.90
21950;DHT22;11139;51.284;7.226;2023-04-24T00:59:35;12.00;99.90
21950;DHT22;11139;51.284;7.226;2023-04-24T01:02:01;12.00;99.90
21950;DHT22;11139;51.284;7.226;2023-04-24T01:04:27;12.00;99.90
21950;DHT22;11139;51.284;7.226;2023-04-24T01:06:52;12.00;99.90
21950;DHT22;11139;51.284;7.226;2023-04-24T01:09:19;12.00;99.90
21950;DHT22;11139;51.284;7.226;2023-04-24T01:11:46;12.00;99.90
21950;DHT22;11139;51.284;7.226;2023-04-24T01:14:12;12.00;99.90
21950;DHT22;11139;51.284;7.226;2023-04-24T01:16:37;12.00;99.90
21950;DHT22;11139;51.284;7.226;2023-04-24T01:19:03;12.00;99.90
21950;DHT22;11139;51.284;7.226;2023-04-24T01:21:29;12.00;99.90
21950;DHT22;11139;51.284;7.226;2023-04-24T01:23:55;11.90;99.90
21950;DHT22;11139;51.284;7.226;2023-04-24T01:26:22;12.00;99.90
21950;DHT22;11139;51.284;7.226;2023-04-24T01:28:48;12.00;99.90
21950;DHT22;11139;51.284;7.226;2023-04-24T01:31:14;11.90;99.90
21950;DHT22;11139;51.284;7.226;2023-04-24T01:33:41;11.90;99.90
21950;DHT22;11139;51.284;7.226;2023-04-24T01:36:07;12.00;99.90
21950;DHT22;11139;51.284;7.226;2023-04-24T01:38:33;11.90;99.90
21950;DHT22;11139;51.284;7.226;2023-04-24T01:40:58;11.90;99.90
21950;DHT22;11139;51.284;7.226;2023-04-24T01:43:24;11.90;99.90
21950;DHT22;11139;51.284;7.226;2023-04-24T01:45:50;11.90;99.90
21950;DHT22;11139;51.284;7.226;2023-04-24T01:48:16;11.90;99.90
21950;DHT22;11139;51.284;7.226;2023-04-24T01:50:41;11.90;99.90
21950;DHT22;11139;51.284;7.226;2023-04-24T01:53:07;11.90;99.90
21950;DHT22;11139;51.284;7.226;2023-04-24T01:55:32;11.90;99.90
21950;DHT22;11139;51.284;7.226;2023-04-24T01:57:58;11.90;99.90
21950;DHT22;11139;51.284;7.226;2023-04-24T02:00:24;11.80;99.90
21950;DHT22;11139;51.284;7.226;2023-04-24T02:02:50;11.80;99.90
21950;DHT22;11139;51.284;7.226;2023-04-24T02:05:16;11.80;99.90
21950;DHT22;11139;51.284;7.226;2023-04-24T02:07:41;11.80;99.90
21950;DHT22;11139;51.284;7.226;2023-04-24T02:10:07;11.80;99.90
21950;DHT22;11139;51.284;7.226;2023-04-24T02:12:32;11.70;99.90
21950;DHT22;11139;51.284;7.226;2023-04-24T02:14:58;11.70;99.90
21950;DHT22;11139;51.284;7.226;2023-04-24T02:17:24;11.70;99.90
21950;DHT22;11139;51.284;7.226;2023-04-24T02:19:49;11.70;99.90
21950;DHT22;11139;51.284;7.226;2023-04-24T02:22:15;11.70;99.90
21950;DHT22;11139;51.284;7.226;2023-04-24T02:24:41;11.70;99.90
21950;DHT22;11139;51.284;7.226;2023-04-24T02:27:06;11.70;99.90
21950;DHT22;11139;51.284;7.226;2023-04-24T02:29:32;11.70;99.90
21950;DHT22;11139;51.284;7.226;2023-04-24T02:31:57;11.60;99.90
21950;DHT22;11139;51.284;7.226;2023-04-24T02:34:23;11.60;99.90
21950;DHT22;11139;51.284;7.226;2023-04-24T02:36:48;11.60;99.90
21950;DHT22;11139;51.284;7.226;2023-04-24T02:39:14;11.60;99.90
21950;DHT22;11139;51.284;7.226;2023-04-24T02:41:42;11.60;99.90
21950;DHT22;11139;51.284;7.226;2023-04-24T02:44:07;11.50;99.90
21950;DHT22;11139;51.284;7.226;2023-04-24T02:46:33;11.50;99.90
21950;DHT22;11139;51.284;7.226;2023-04-24T02:48:58;11.50;99.90
21950;DHT22;11139;51.284;7.226;2023-04-24T02:51:24;11.50;99.90
21950;DHT22;11139;51.284;7.226;2023-04-24T02:53:50;11.50;99.90
21950;DHT22;11139;51.284;7.226;2023-04-24T02:56:15;11.40;99.90
21950;DHT22;11139;51.284;7.226;2023-04-24T02:58:41;11.40;99.90
21950;DHT22;11139;51.284;7.226;2023-04-24T03:01:07;11.40;99.90
21950;DHT22;11139;51.284;7.226;2023-04-24T03:03:33;11.40;99.90
21950;DHT22;11139;51.284;7.226;2023-04-24T03:05:58;11.40;99.90
21950;DHT22;11139;51.284;7.226;2023-04-24T03:08:24;11.40;99.90
21950;DHT22;11139;51.284;7.226;2023-04-24T03:10:49;11.40;99.90
21950;DHT22;11139;51.284;7.226;2023-04-24T03:13:15;11.40;99.90
21950;DHT22;11139;51.284;7.226;2023-04-24T03:15:41;11.40;99.90
21950;DHT22;11139;51.284;7.226;2023-04-24T03:18:06;11.40;99.90
21950;DHT22;11139;51.284;7.226;2023-04-24T03:20:31;11.40;99.90
21950;DHT22;11139;51.284;7.226;2023-04-24T03:22:57;11.40;99.90
21950;DHT22;11139;51.284;7.226;2023-04-24T03:25:22;11.40;99.90
21950;DHT22;11139;51.284;7.226;2023-04-24T03:27:48;11.40;99.90
21950;DHT22;11139;51.284;7.226;2023-04-24T03:30:13;11.30;99.90
21950;DHT22;11139;51.284;7.226;2023-04-24T03:32:39;11.40;99.90
21950;DHT22;11139;51.284;7.226;2023-04-24T03:35:05;11.30;99.90
21950;DHT22;11139;51.284;7.226;2023-04-24T03:37:32;11.40;99.90
21950;DHT22;11139;51.284;7.226;2023-04-24T03:39:57;11.30;99.90
21950;DHT22;11139;51.284;7.226;2023-04-24T03:42:23;11.30;99.90
21950;DHT22;11139;51.284;7.226;2023-04-24T03:44:48;11.30;99.90
21950;DHT22;11139;51.284;7.226;2023-04-24T03:47:14;11.30;99.90
21950;DHT22;11139;51.284;7.226;2023-04-24T03:49:40;11.30;99.90
21950;DHT22;11139;51.284;7.226;2023-04-24T03:52:05;11.30;99.90
21950;DHT22;11139;51.284;7.226;2023-04-24T03:54:31;11.20;99.90
21950;DHT22;11139;51.284;7.226;2023-04-24T03:56:56;11.20;99.90
21950;DHT22;11139;51.284;7.226;2023-04-24T03:59:22;11.20;99.90
21950;DHT22;11139;51.284;7.226;2023-04-24T04:01:47;11.30;99.90
21950;DHT22;11139;51.284;7.226;2023-04-24T04:04:13;11.30;99.90
21950;DHT22;11139;51.284;7.226;2023-04-24T04:06:38;11.20;99.90
21950;DHT22;11139;51.284;7.226;2023-04-24T04:09:04;11.20;99.90
21950;DHT22;11139;51.284;7.226;2023-04-24T04:11:29;11.20;99.90
21950;DHT22;11139;51.284;7.226;2023-04-24T04:13:55;11.20;99.90
21950;DHT22;11139;51.284;7.226;2023-04-24T04:16:22;11.20;99.90
21950;DHT22;11139;51.284;7.226;2023-04-24T04:18:47;11.20;99.90
21950;DHT22;11139;51.284;7.226;2023-04-24T04:21:13;11.20;99.90
21950;DHT22;11139;51.284;7.226;2023-04-24T04:23:38;11.20;99.90
21950;DHT22;11139;51.284;7.226;2023-04-24T04:26:05;11.20;99.90
21950;DHT22;11139;51.284;7.226;2023-04-24T04:28:31;11.20;99.90
21950;DHT22;11139;51.284;7.226;2023-04-24T04:30:57;11.20;99.90
21950;DHT22;11139;51.284;7.226;2023-04-24T04:33:23;11.20;99.90
21950;DHT22;11139;51.284;7.226;2023-04-24T04:35:48;11.10;99.90
21950;DHT22;11139;51.284;7.226;2023-04-24T04:38:15;11.10;99.90
21950;DHT22;11139;51.284;7.226;2023-04-24T04:40:40;11.10;99.90
21950;DHT22;11139;51.284;7.226;2023-04-24T04:43:06;11.10;99.90
21950;DHT22;11139;51.284;7.226;2023-04-24T04:45:32;11.10;99.90
21950;DHT22;11139;51.284;7.226;2023-04-24T04:47:58;11.10;99.90
21950;DHT22;11139;51.284;7.226;2023-04-24T04:50:26;11.10;99.90
21950;DHT22;11139;51.284;7.226;2023-04-24T04:52:52;11.10;99.90
21950;DHT22;11139;51.284;7.226;2023-04-24T04:55:17;11.10;99.90
21950;DHT22;11139;51.284;7.226;2023-04-24T04:57:45;11.10;99.90
21950;DHT22;11139;51.284;7.226;2023-04-24T05:00:11;11.10;99.90
21950;DHT22;11139;51.284;7.226;2023-04-24T05:02:36;11.10;99.90
21950;DHT22;11139;51.284;7.226;2023-04-24T05:05:02;11.00;99.90
21950;DHT22;11139;51.284;7.226;2023-04-24T05:07:28;11.00;99.90
21950;DHT22;11139;51.284;7.226;2023-04-24T05:09:53;11.00;99.90
21950;DHT22;11139;51.284;7.226;2023-04-24T05:12:18;11.00;99.90
21950;DHT22;11139;51.284;7.226;2023-04-24T05:14:44;11.00;99.90
21950;DHT22;11139;51.284;7.226;2023-04-24T05:17:09;11.00;99.90
21950;DHT22;11139;51.284;7.226;2023-04-24T05:19:35;11.00;99.90
21950;DHT22;11139;51.284;7.226;2023-04-24T05:22:03;11.00;99.90
21950;DHT22;11139;51.284;7.226;2023-04-24T05:24:30;11.00;99.90
21950;DHT22;11139;51.284;7.226;2023-04-24T05:26:56;11.00;99.90
21950;DHT22;11139;51.284;7.226;2023-04-24T05:29:22;11.00;99.90
21950;DHT22;11139;51.284;7.226;2023-04-24T05:31:47;10.90;99.90
21950;DHT22;11139;51.284;7.226;2023-04-24T05:34:13;10.90;99.90
21950;DHT22;11139;51.284;7.226;2023-04-24T05:36:39;10.90;99.90
21950;DHT22;11139;51.284;7.226;2023-04-24T05:39:04;10.90;99.90
21950;DHT22;11139;51.284;7.226;2023-04-24T05:41:30;10.90;99.90
21950;DHT22;11139;51.284;7.226;2023-04-24T05:43:55;10.90;99.90
21950;DHT22;11139;51.284;7.226;2023-04-24T05:46:21;10.90;99.90
21950;DHT22;11139;51.284;7.226;2023-04-24T05:48:46;10.90;99.90
21950;DHT22;11139;51.284;7.226;2023-04-24T05:51:12;10.90;99.90
21950;DHT22;11139;51.284;7.226;2023-04-24T05:53:37;10.90;99.90
21950;DHT22;11139;51.284;7.226;2023-04-24T05:56:03;10.90;99.90
21950;DHT22;11139;51.284;7.226;2023-04-24T05:58:28;10.80;99.90
21950;DHT22;11139;51.284;7.226;2023-04-24T06:00:54;10.80;99.90
21950;DHT22;11139;51.284;7.226;2023-04-24T06:03:20;10.80;99.90
21950;DHT22;11139;51.284;7.226;2023-04-24T06:05:45;10.80;99.90
21950;DHT22;11139;51.284;7.226;2023-04-24T06:08:11;10.80;99.90
21950;DHT22;11139;51.284;7.226;2023-04-24T06:10:36;10.80;99.90
21950;DHT22;11139;51.284;7.226;2023-04-24T06:13:02;10.80;99.90
21950;DHT22;11139;51.284;7.226;2023-04-24T06:15:28;10.80;99.90
21950;DHT22;11139;51.284;7.226;2023-04-24T06:17:54;10.70;99.90
21950;DHT22;11139;51.284;7.226;2023-04-24T06:20:19;10.70;99.90
21950;DHT22;11139;51.284;7.226;2023-04-24T06:22:45;10.70;99.90
21950;DHT22;11139;51.284;7.226;2023-04-24T06:25:10;10.70;99.90
21950;DHT22;11139;51.284;7.226;2023-04-24T06:27:36;10.70;99.90
21950;DHT22;11139;51.284;7.226;2023-04-24T06:30:01;10.70;99.90
21950;DHT22;11139;51.284;7.226;2023-04-24T06:32:27;10.70;99.90
21950;DHT22;11139;51.284;7.226;2023-04-24T06:34:53;10.70;99.90
21950;DHT22;11139;51.284;7.226;2023-04-24T06:37:18;10.60;99.90
21950;DHT22;11139;51.284;7.226;2023-04-24T06:39:44;10.60;99.90
21950;DHT22;11139;51.284;7.226;2023-04-24T06:42:10;10.60;99.90
21950;DHT22;11139;51.284;7.226;2023-04-24T06:44:35;10.60;99.90
21950;DHT22;11139;51.284;7.226;2023-04-24T06:47:09;10.60;99.90
21950;DHT22;11139;51.284;7.226;2023-04-24T06:49:38;10.60;99.90
21950;DHT22;11139;51.284;7.226;2023-04-24T06:52:03;10.60;99.90
21950;DHT22;11139;51.284;7.226;2023-04-24T06:54:29;10.60;99.90
21950;DHT22;11139;51.284;7.226;2023-04-24T06:56:55;10.60;99.90
21950;DHT22;11139;51.284;7.226;2023-04-24T06:59:25;10.60;99.90
21950;DHT22;11139;51.284;7.226;2023-04-24T07:01:50;10.60;99.90
21950;DHT22;11139;51.284;7.226;2023-04-24T07:04:16;10.60;99.90
21950;DHT22;11139;51.284;7.226;2023-04-24T07:06:42;10.50;99.90
21950;DHT22;11139;51.284;7.226;2023-04-24T07:09:08;10.50;99.90
21950;DHT22;11139;51.284;7.226;2023-04-24T07:11:34;10.50;99.90
21950;DHT22;11139;51.284;7.226;2023-04-24T07:14:03;10.50;99.90
21950;DHT22;11139;51.284;7.226;2023-04-24T07:16:28;10.50;99.90
21950;DHT22;11139;51.284;7.226;2023-04-24T07:18:54;10.50;99.90
21950;DHT22;11139;51.284;7.226;2023-04-24T07:21:19;10.50;99.90
21950;DHT22;11139;51.284;7.226;2023-04-24T07:23:45;10.50;99.90
21950;DHT22;11139;51.284;7.226;2023-04-24T07:26:10;10.50;99.90
21950;DHT22;11139;51.284;7.226;2023-04-24T07:28:36;10.50;99.90
21950;DHT22;11139;51.284;7.226;2023-04-24T07:31:01;10.50;99.90
21950;DHT22;11139;51.284;7.226;2023-04-24T07:33:27;10.50;99.90
21950;DHT22;11139;51.284;7.226;2023-04-24T07:35:52;10.50;99.90
21950;DHT22;11139;51.284;7.226;2023-04-24T07:38:18;10.40;99.90
21950;DHT22;11139;51.284;7.226;2023-04-24T07:40:47;10.40;99.90
21950;DHT22;11139;51.284;7.226;2023-04-24T07:43:13;10.40;99.90
21950;DHT22;11139;51.284;7.226;2023-04-24T07:45:38;10.40;99.90
21950;DHT22;11139;51.284;7.226;2023-04-24T07:48:04;10.40;99.90
21950;DHT22;11139;51.284;7.226;2023-04-24T07:50:30;10.40;99.90
21950;DHT22;11139;51.284;7.226;2023-04-24T07:52:56;10.40;99.90
21950;DHT22;11139;51.284;7.226;2023-04-24T07:55:21;10.40;99.90
21950;DHT22;11139;51.284;7.226;2023-04-24T07:57:47;10.30;99.90
21950;DHT22;11139;51.284;7.226;2023-04-24T08:00:12;10.30;99.90
21950;DHT22;11139;51.284;7.226;2023-04-24T08:02:38;10.30;99.90
21950;DHT22;11139;51.284;7.226;2023-04-24T08:05:04;10.30;99.90
21950;DHT22;11139;51.284;7.226;2023-04-24T08:07:29;10.30;99.90
21950;DHT22;11139;51.284;7.226;2023-04-24T08:09:55;10.20;99.90
21950;DHT22;11139;51.284;7.226;2023-04-24T08:12:21;10.20;99.90
21950;DHT22;11139;51.284;7.226;2023-04-24T08:14:46;10.20;99.90
21950;DHT22;11139;51.284;7.226;2023-04-24T08:17:11;10.20;99.90
21950;DHT22;11139;51.284;7.226;2023-04-24T08:19:37;10.10;99.90
21950;DHT22;11139;51.284;7.226;2023-04-24T08:22:02;10.10;99.90
21950;DHT22;11139;51.284;7.226;2023-04-24T08:24:29;10.10;99.90
21950;DHT22;11139;51.284;7.226;2023-04-24T08:26:54;10.10;99.90
21950;DHT22;11139;51.284;7.226;2023-04-24T08:29:21;10.10;99.90
21950;DHT22;11139;51.284;7.226;2023-04-24T08:31:47;10.00;99.90
21950;DHT22;11139;51.284;7.226;2023-04-24T08:34:12;10.00;99.90
21950;DHT22;11139;51.284;7.226;2023-04-24T08:36:38;10.00;99.90
21950;DHT22;11139;51.284;7.226;2023-04-24T08:39:06;10.00;99.90
21950;DHT22;11139;51.284;7.226;2023-04-24T08:41:32;10.00;99.90
21950;DHT22;11139;51.284;7.226;2023-04-24T08:43:58;10.00;99.90
21950;DHT22;11139;51.284;7.226;2023-04-24T08:46:24;9.90;99.90
21950;DHT22;11139;51.284;7.226;2023-04-24T08:48:50;10.00;99.90
21950;DHT22;11139;51.284;7.226;2023-04-24T08:51:17;10.00;99.90
21950;DHT22;11139;51.284;7.226;2023-04-24T08:53:42;9.90;99.90
21950;DHT22;11139;51.284;7.226;2023-04-24T08:56:08;9.90;99.90
21950;DHT22;11139;51.284;7.226;2023-04-24T08:58:34;9.90;99.90
21950;DHT22;11139;51.284;7.226;2023-04-24T09:01:00;9.90;99.90
21950;DHT22;11139;51.284;7.226;2023-04-24T09:03:27;9.90;99.90
21950;DHT22;11139;51.284;7.226;2023-04-24T09:05:53;9.90;99.90
21950;DHT22;11139;51.284;7.226;2023-04-24T09:08:19;9.90;99.90
21950;DHT22;11139;51.284;7.226;2023-04-24T09:10:45;9.90;99.90
21950;DHT22;11139;51.284;7.226;2023-04-24T09:13:10;9.90;99.90
21950;DHT22;11139;51.284;7.226;2023-04-24T09:15:40;10.00;99.90
21950;DHT22;11139;51.284;7.226;2023-04-24T09:18:06;9.90;99.90
21950;DHT22;11139;51.284;7.226;2023-04-24T09:20:32;9.90;99.90
21950;DHT22;11139;51.284;7.226;2023-04-24T09:22:57;9.90;99.90
21950;DHT22;11139;51.284;7.226;2023-04-24T09:25:32;9.90;99.90
21950;DHT22;11139;51.284;7.226;2023-04-24T09:28:02;9.90;99.90
21950;DHT22;11139;51.284;7.226;2023-04-24T09:30:28;9.90;99.90
21950;DHT22;11139;51.284;7.226;2023-04-24T09:35:55;9.90;99.90
21950;DHT22;11139;51.284;7.226;2023-04-24T09:38:30;9.90;99.90
21950;DHT22;11139;51.284;7.226;2023-04-24T09:40:58;9.90;99.90
21950;DHT22;11139;51.284;7.226;2023-04-24T09:43:24;9.90;99.90
21950;DHT22;11139;51.284;7.226;2023-04-24T09:45:51;9.90;99.90
21950;DHT22;11139;51.284;7.226;2023-04-24T09:48:20;9.90;99.90
21950;DHT22;11139;51.284;7.226;2023-04-24T09:50:54;9.90;99.90
21950;DHT22;11139;51.284;7.226;2023-04-24T09:53:23;9.90;99.90
21950;DHT22;11139;51.284;7.226;2023-04-24T09:55:49;9.90;99.90
21950;DHT22;11139;51.284;7.226;2023-04-24T09:58:15;9.90;99.90
21950;DHT22;11139;51.284;7.226;2023-04-24T10:00:41;9.90;99.90
21950;DHT22;11139;51.284;7.226;2023-04-24T10:03:06;9.90;99.90
21950;DHT22;11139;51.284;7.226;2023-04-24T10:05:34;9.90;99.90
21950;DHT22;11139;51.284;7.226;2023-04-24T10:08:04;9.90;99.90
21950;DHT22;11139;51.284;7.226;2023-04-24T10:10:31;9.90;99.90
21950;DHT22;11139;51.284;7.226;2023-04-24T10:12:56;9.90;99.90
21950;DHT22;11139;51.284;7.226;2023-04-24T10:15:22;9.90;99.90
21950;DHT22;11139;51.284;7.226;2023-04-24T10:17:49;9.90;99.90
21950;DHT22;11139;51.284;7.226;2023-04-24T10:20:18;9.90;99.90
21950;DHT22;11139;51.284;7.226;2023-04-24T10:22:45;9.80;99.90
21950;DHT22;11139;51.284;7.226;2023-04-24T10:25:16;9.80;99.90
21950;DHT22;11139;51.284;7.226;2023-04-24T10:27:41;9.80;99.90
21950;DHT22;11139;51.284;7.226;2023-04-24T10:30:07;9.80;99.90
21950;DHT22;11139;51.284;7.226;2023-04-24T10:32:32;9.80;99.90
21950;DHT22;11139;51.284;7.226;2023-04-24T10:34:58;9.90;99.90
21950;DHT22;11139;51.284;7.226;2023-04-24T10:37:24;9.80;99.90
21950;DHT22;11139;51.284;7.226;2023-04-24T10:39:50;9.80;99.90
21950;DHT22;11139;51.284;7.226;2023-04-24T10:42:16;9.80;99.90
21950;DHT22;11139;51.284;7.226;2023-04-24T10:44:42;9.80;99.90
21950;DHT22;11139;51.284;7.226;2023-04-24T10:47:12;9.80;99.90
21950;DHT22;11139;51.284;7.226;2023-04-24T10:49:38;9.80;99.90
21950;DHT22;11139;51.284;7.226;2023-04-24T10:52:04;9.80;99.90
21950;DHT22;11139;51.284;7.226;2023-04-24T10:54:36;9.80;99.90
21950;DHT22;11139;51.284;7.226;2023-04-24T10:59:43;9.90;99.90
21950;DHT22;11139;51.284;7.226;2023-04-24T11:02:09;9.80;99.90
21950;DHT22;11139;51.284;7.226;2023-04-24T11:04:35;9.90;99.90
21950;DHT22;11139;51.284;7.226;2023-04-24T11:07:02;9.90;99.90
21950;DHT22;11139;51.284;7.226;2023-04-24T11:09:27;9.80;99.90
21950;DHT22;11139;51.284;7.226;2023-04-24T11:12:07;9.90;99.90
21950;DHT22;11139;51.284;7.226;2023-04-24T11:17:37;9.80;99.90
21950;DHT22;11139;51.284;7.226;2023-04-24T11:20:04;9.80;99.90
21950;DHT22;11139;51.284;7.226;2023-04-24T11:22:36;9.80;99.90
21950;DHT22;11139;51.284;7.226;2023-04-24T11:25:02;9.80;99.90
21950;DHT22;11139;51.284;7.226;2023-04-24T11:27:32;9.80;99.90
21950;DHT22;11139;51.284;7.226;2023-04-24T11:29:59;9.80;99.90
21950;DHT22;11139;51.284;7.226;2023-04-24T11:32:29;9.80;99.90
21950;DHT22;11139;51.284;7.226;2023-04-24T11:34:56;9.80;99.90
21950;DHT22;11139;51.284;7.226;2023-04-24T11:37:26;9.80;99.90
21950;DHT22;11139;51.284;7.226;2023-04-24T11:39:56;9.80;99.90
21950;DHT22;11139;51.284;7.226;2023-04-24T11:42:22;9.80;99.90
21950;DHT22;11139;51.284;7.226;2023-04-24T11:44:54;9.70;99.90
21950;DHT22;11139;51.284;7.226;2023-04-24T11:47:31;9.60;99.90
21950;DHT22;11139;51.284;7.226;2023-04-24T11:50:10;9.60;99.90
21950;DHT22;11139;51.284;7.226;2023-04-24T11:55:57;9.60;99.90
21950;DHT22;11139;51.284;7.226;2023-04-24T11:58:40;9.60;99.90
21950;DHT22;11139;51.284;7.226;2023-04-24T12:07:31;9.70;99.90
21950;DHT22;11139;51.284;7.226;2023-04-24T12:10:19;9.70;99.90
21950;DHT22;11139;51.284;7.226;2023-04-24T12:13:13;9.70;99.90
21950;DHT22;11139;51.284;7.226;2023-04-24T12:16:06;9.70;99.90
21950;DHT22;11139;51.284;7.226;2023-04-24T12:18:47;9.80;99.90
21950;DHT22;11139;51.284;7.226;2023-04-24T12:21:25;9.80;99.90
21950;DHT22;11139;51.284;7.226;2023-04-24T12:24:13;9.80;99.90
21950;DHT22;11139;51.284;7.226;2023-04-24T12:33:08;9.80;99.90
21950;DHT22;11139;51.284;7.226;2023-04-24T12:39:42;9.80;99.90
21950;DHT22;11139;51.284;7.226;2023-04-24T12:42:12;9.70;99.90
21950;DHT22;11139;51.284;7.226;2023-04-24T12:47:58;9.70;99.90
21950;DHT22;11139;51.284;7.226;2023-04-24T12:53:39;9.70;99.90
21950;DHT22;11139;51.284;7.226;2023-04-24T12:56:13;9.70;99.90
21950;DHT22;11139;51.284;7.226;2023-04-24T13:01:54;9.70;99.90
21950;DHT22;11139;51.284;7.226;2023-04-24T13:07:40;9.70;99.90
21950;DHT22;11139;51.284;7.226;2023-04-24T13:10:38;9.80;99.90
21950;DHT22;11139;51.284;7.226;2023-04-24T13:13:07;9.80;99.90
21950;DHT22;11139;51.284;7.226;2023-04-24T13:15:33;9.80;99.90
21950;DHT22;11139;51.284;7.226;2023-04-24T13:17:58;9.80;99.90
21950;DHT22;11139;51.284;7.226;2023-04-24T13:20:24;9.90;99.90
21950;DHT22;11139;51.284;7.226;2023-04-24T13:22:49;9.90;99.90
21950;DHT22;11139;51.284;7.226;2023-04-24T13:25:15;10.00;99.90
21950;DHT22;11139;51.284;7.226;2023-04-24T13:27:42;10.00;99.90
21950;DHT22;11139;51.284;7.226;2023-04-24T13:30:07;10.00;99.90
21950;DHT22;11139;51.284;7.226;2023-04-24T13:32:33;10.00;99.90
21950;DHT22;11139;51.284;7.226;2023-04-24T13:35:00;10.10;99.90
21950;DHT22;11139;51.284;7.226;2023-04-24T13:37:26;10.00;99.90
21950;DHT22;11139;51.284;7.226;2023-04-24T13:39:51;10.10;99.90
21950;DHT22;11139;51.284;7.226;2023-04-24T13:42:17;10.10;99.90
21950;DHT22;11139;51.284;7.226;2023-04-24T13:44:43;10.10;99.90
21950;DHT22;11139;51.284;7.226;2023-04-24T13:47:08;10.00;99.90
21950;DHT22;11139;51.284;7.226;2023-04-24T13:49:34;10.10;99.90
21950;DHT22;11139;51.284;7.226;2023-04-24T13:52:00;10.10;99.90
21950;DHT22;11139;51.284;7.226;2023-04-24T13:54:25;10.00;99.90
21950;DHT22;11139;51.284;7.226;2023-04-24T13:56:51;10.00;99.90
21950;DHT22;11139;51.284;7.226;2023-04-24T13:59:17;10.00;99.90
21950;DHT22;11139;51.284;7.226;2023-04-24T14:01:42;10.00;99.90
21950;DHT22;11139;51.284;7.226;2023-04-24T14:15:11;10.00;99.90
21950;DHT22;11139;51.284;7.226;2023-04-24T14:17:42;10.10;99.90
21950;DHT22;11139;51.284;7.226;2023-04-24T14:24:12;10.10;99.90
21950;DHT22;11139;51.284;7.226;2023-04-24T14:26:39;10.10;99.90
21950;DHT22;11139;51.284;7.226;2023-04-24T14:32:15;10.00;99.90
21950;DHT22;11139;51.284;7.226;2023-04-24T14:37:40;10.10;99.90
21950;DHT22;11139;51.284;7.226;2023-04-24T14:47:16;10.00;99.90
21950;DHT22;11139;51.284;7.226;2023-04-24T14:50:17;10.10;99.90
21950;DHT22;11139;51.284;7.226;2023-04-24T14:53:06;10.00;99.90
21950;DHT22;11139;51.284;7.226;2023-04-24T15:01:45;10.10;99.90
21950;DHT22;11139;51.284;7.226;2023-04-24T15:04:14;10.00;99.90
21950;DHT22;11139;51.284;7.226;2023-04-24T15:06:43;10.10;99.90
21950;DHT22;11139;51.284;7.226;2023-04-24T15:09:11;10.00;99.90
21950;DHT22;11139;51.284;7.226;2023-04-24T15:11:40;10.10;99.90
21950;DHT22;11139;51.284;7.226;2023-04-24T15:14:27;10.00;99.90
21950;DHT22;11139;51.284;7.226;2023-04-24T15:16:56;10.00;99.90
21950;DHT22;11139;51.284;7.226;2023-04-24T15:19:25;10.00;99.90
21950;DHT22;11139;51.284;7.226;2023-04-24T15:22:09;10.00;99.90
21950;DHT22;11139;51.284;7.226;2023-04-24T15:24:58;10.00;99.90
21950;DHT22;11139;51.284;7.226;2023-04-24T15:30:37;10.00;99.90
21950;DHT22;11139;51.284;7.226;2023-04-24T15:33:05;10.10;99.90
21950;DHT22;11139;51.284;7.226;2023-04-24T15:36:06;10.10;99.90
21950;DHT22;11139;51.284;7.226;2023-04-24T15:38:48;10.10;99.90
21950;DHT22;11139;51.284;7.226;2023-04-24T15:41:23;10.10;99.90
21950;DHT22;11139;51.284;7.226;2023-04-24T15:44:04;10.10;99.90
21950;DHT22;11139;51.284;7.226;2023-04-24T16:32:36;10.20;99.90
21950;DHT22;11139;51.284;7.226;2023-04-24T16:35:22;10.20;99.90
21950;DHT22;11139;51.284;7.226;2023-04-24T16:37:48;10.10;99.90
21950;DHT22;11139;51.284;7.226;2023-04-24T16:40:13;10.20;99.90
21950;DHT22;11139;51.284;7.226;2023-04-24T16:42:39;10.10;99.90
21950;DHT22;11139;51.284;7.226;2023-04-24T16:45:04;10.10;99.90
21950;DHT22;11139;51.284;7.226;2023-04-24T16:47:31;10.20;99.90
21950;DHT22;11139;51.284;7.226;2023-04-24T16:49:56;10.20;99.90
21950;DHT22;11139;51.284;7.226;2023-04-24T16:52:51;10.10;99.90
21950;DHT22;11139;51.284;7.226;2023-04-24T16:55:27;10.20;99.90
21950;DHT22;11139;51.284;7.226;2023-04-24T16:57:53;10.10;99.90
21950;DHT22;11139;51.284;7.226;2023-04-24T17:00:21;10.10;99.90
21950;DHT22;11139;51.284;7.226;2023-04-24T17:02:49;10.20;99.90
21950;DHT22;11139;51.284;7.226;2023-04-24T17:05:17;10.10;99.90
21950;DHT22;11139;51.284;7.226;2023-04-24T17:07:49;10.10;99.90
21950;DHT22;11139;51.284;7.226;2023-04-24T17:10:15;10.10;99.90
21950;DHT22;11139;51.284;7.226;2023-04-24T17:12:41;10.10;99.90
21950;DHT22;11139;51.284;7.226;2023-04-24T17:15:06;10.10;99.90
21950;DHT22;11139;51.284;7.226;2023-04-24T17:17:32;10.10;99.90
21950;DHT22;11139;51.284;7.226;2023-04-24T17:20:00;10.10;99.90
21950;DHT22;11139;51.284;7.226;2023-04-24T17:22:26;10.10;99.90
21950;DHT22;11139;51.284;7.226;2023-04-24T17:24:52;10.10;99.90
21950;DHT22;11139;51.284;7.226;2023-04-24T17:30:14;10.10;99.90
21950;DHT22;11139;51.284;7.226;2023-04-24T17:32:45;10.00;99.90
21950;DHT22;11139;51.284;7.226;2023-04-24T17:35:13;10.00;99.90
21950;DHT22;11139;51.284;7.226;2023-04-24T17:37:44;10.00;99.90
21950;DHT22;11139;51.284;7.226;2023-04-24T17:40:10;10.00;99.90
21950;DHT22;11139;51.284;7.226;2023-04-24T17:42:36;10.00;99.90
21950;DHT22;11139;51.284;7.226;2023-04-24T17:45:05;10.00;99.90